sensor_id;sensor_type;location;lat;lon;timestamp;P1;durP1;ratioP1;P2;durP2;ratioP2
3307;SDS011;1666;48.898;9.182;2022-10-03T00:01:03;23.27;;;14.67;;
3307;SDS011;1666;48.898;9.182;2022-10-03T00:03:47;25.98;;;15.20;;
3307;SDS011;1666;48.898;9.182;2022-10-03T00:06:31;24.83;;;15.55;;
3307;SDS011;1666;48.898;9.182;2022-10-03T00:09:16;24.10;;;15.48;;
3307;SDS011;1666;48.898;9.182;2022-10-03T00:12:08;23.08;;;15.07;;
3307;SDS011;1666;48.898;9.182;2022-10-03T00:14:48;23.25;;;15.77;;
3307;SDS011;1666;48.898;9.182;2022-10-03T00:17:26;25.95;;;16.42;;
3307;SDS011;1666;48.898;9.182;2022-10-03T00:20:10;27.42;;;17.27;;
3307;SDS011;1666;48.898;9.182;2022-10-03T00:23:01;32.00;;;17.98;;
3307;SDS011;1666;48.898;9.182;2022-10-03T00:25:38;26.40;;;17.52;;
3307;SDS011;1666;48.898;9.182;2022-10-03T00:28:16;26.75;;;16.65;;
3307;SDS011;1666;48.898;9.182;2022-10-03T00:31:04;26.17;;;16.40;;
3307;SDS011;1666;48.898;9.182;2022-10-03T00:33:45;25.75;;;15.65;;
3307;SDS011;1666;48.898;9.182;2022-10-03T00:36:30;20.05;;;14.35;;
3307;SDS011;1666;48.898;9.182;2022-10-03T00:39:19;23.70;;;14.18;;
3307;SDS011;1666;48.898;9.182;2022-10-03T00:42:26;22.42;;;14.45;;
3307;SDS011;1666;48.898;9.182;2022-10-03T00:45:36;22.13;;;14.73;;
3307;SDS011;1666;48.898;9.182;2022-10-03T00:48:40;20.67;;;14.55;;
3307;SDS011;1666;48.898;9.182;2022-10-03T00:51:29;23.45;;;15.05;;
3307;SDS011;1666;48.898;9.182;2022-10-03T00:54:20;22.52;;;14.77;;
3307;SDS011;1666;48.898;9.182;2022-10-03T00:57:13;23.63;;;16.02;;
3307;SDS011;1666;48.898;9.182;2022-10-03T01:00:04;28.75;;;16.58;;
3307;SDS011;1666;48.898;9.182;2022-10-03T01:02:48;26.73;;;15.73;;
3307;SDS011;1666;48.898;9.182;2022-10-03T01:05:45;24.70;;;16.40;;
3307;SDS011;1666;48.898;9.182;2022-10-03T01:11:31;24.88;;;16.02;;
3307;SDS011;1666;48.898;9.182;2022-10-03T01:14:14;28.33;;;16.75;;
3307;SDS011;1666;48.898;9.182;2022-10-03T01:16:54;23.65;;;15.75;;
3307;SDS011;1666;48.898;9.182;2022-10-03T01:19:38;24.92;;;15.20;;
3307;SDS011;1666;48.898;9.182;2022-10-03T01:22:45;24.15;;;15.52;;
3307;SDS011;1666;48.898;9.182;2022-10-03T01:25:36;24.25;;;14.75;;
3307;SDS011;1666;48.898;9.182;2022-10-03T01:31:32;21.17;;;14.60;;
3307;SDS011;1666;48.898;9.182;2022-10-03T01:34:12;22.02;;;14.07;;
3307;SDS011;1666;48.898;9.182;2022-10-03T01:36:56;19.00;;;13.60;;
3307;SDS011;1666;48.898;9.182;2022-10-03T01:39:33;19.95;;;14.30;;
3307;SDS011;1666;48.898;9.182;2022-10-03T01:42:11;19.90;;;13.48;;
3307;SDS011;1666;48.898;9.182;2022-10-03T01:44:59;23.60;;;15.18;;
3307;SDS011;1666;48.898;9.182;2022-10-03T01:47:42;23.25;;;13.50;;
3307;SDS011;1666;48.898;9.182;2022-10-03T01:50:18;22.33;;;14.65;;
3307;SDS011;1666;48.898;9.182;2022-10-03T01:52:54;27.00;;;15.77;;
3307;SDS011;1666;48.898;9.182;2022-10-03T01:55:32;25.50;;;14.15;;
3307;SDS011;1666;48.898;9.182;2022-10-03T01:58:10;24.38;;;14.75;;
3307;SDS011;1666;48.898;9.182;2022-10-03T02:00:51;25.13;;;15.38;;
3307;SDS011;1666;48.898;9.182;2022-10-03T02:03:27;20.48;;;14.32;;
3307;SDS011;1666;48.898;9.182;2022-10-03T02:06:04;21.88;;;13.90;;
3307;SDS011;1666;48.898;9.182;2022-10-03T02:08:45;23.30;;;13.93;;
3307;SDS011;1666;48.898;9.182;2022-10-03T02:11:27;22.00;;;14.77;;
3307;SDS011;1666;48.898;9.182;2022-10-03T02:14:05;21.05;;;14.23;;
3307;SDS011;1666;48.898;9.182;2022-10-03T02:16:51;27.52;;;15.05;;
3307;SDS011;1666;48.898;9.182;2022-10-03T02:19:28;21.83;;;14.80;;
3307;SDS011;1666;48.898;9.182;2022-10-03T02:22:12;24.83;;;15.48;;
3307;SDS011;1666;48.898;9.182;2022-10-03T02:24:45;25.02;;;15.05;;
3307;SDS011;1666;48.898;9.182;2022-10-03T02:30:27;22.55;;;14.63;;
3307;SDS011;1666;48.898;9.182;2022-10-03T02:33:15;25.20;;;15.32;;
3307;SDS011;1666;48.898;9.182;2022-10-03T02:36:14;25.80;;;14.80;;
3307;SDS011;1666;48.898;9.182;2022-10-03T02:39:08;29.77;;;15.10;;
3307;SDS011;1666;48.898;9.182;2022-10-03T02:45:18;25.27;;;15.20;;
3307;SDS011;1666;48.898;9.182;2022-10-03T02:57:30;27.52;;;15.50;;
3307;SDS011;1666;48.898;9.182;2022-10-03T03:00:19;29.38;;;15.88;;
3307;SDS011;1666;48.898;9.182;2022-10-03T03:03:00;25.95;;;15.27;;
3307;SDS011;1666;48.898;9.182;2022-10-03T03:05:56;27.00;;;14.98;;
3307;SDS011;1666;48.898;9.182;2022-10-03T03:08:52;23.42;;;14.68;;
3307;SDS011;1666;48.898;9.182;2022-10-03T03:11:43;22.45;;;14.77;;
3307;SDS011;1666;48.898;9.182;2022-10-03T03:17:49;21.23;;;13.63;;
3307;SDS011;1666;48.898;9.182;2022-10-03T03:20:31;24.75;;;14.63;;
3307;SDS011;1666;48.898;9.182;2022-10-03T03:29:18;22.08;;;13.93;;
3307;SDS011;1666;48.898;9.182;2022-10-03T03:31:59;19.08;;;14.15;;
3307;SDS011;1666;48.898;9.182;2022-10-03T03:34:38;23.75;;;15.60;;
3307;SDS011;1666;48.898;9.182;2022-10-03T03:37:17;23.15;;;14.77;;
3307;SDS011;1666;48.898;9.182;2022-10-03T03:40:02;22.15;;;14.43;;
3307;SDS011;1666;48.898;9.182;2022-10-03T03:42:48;22.08;;;13.93;;
3307;SDS011;1666;48.898;9.182;2022-10-03T03:45:34;25.08;;;14.25;;
3307;SDS011;1666;48.898;9.182;2022-10-03T03:48:23;23.23;;;14.17;;
3307;SDS011;1666;48.898;9.182;2022-10-03T03:51:09;22.33;;;13.43;;
3307;SDS011;1666;48.898;9.182;2022-10-03T03:54:01;23.60;;;13.85;;
3307;SDS011;1666;48.898;9.182;2022-10-03T03:56:50;24.80;;;14.82;;
3307;SDS011;1666;48.898;9.182;2022-10-03T03:59:40;25.60;;;14.20;;
3307;SDS011;1666;48.898;9.182;2022-10-03T04:02:25;23.63;;;15.27;;
3307;SDS011;1666;48.898;9.182;2022-10-03T04:05:07;25.08;;;15.75;;
3307;SDS011;1666;48.898;9.182;2022-10-03T04:07:47;26.38;;;15.27;;
3307;SDS011;1666;48.898;9.182;2022-10-03T04:10:41;26.02;;;14.63;;
3307;SDS011;1666;48.898;9.182;2022-10-03T04:13:23;24.55;;;14.68;;
3307;SDS011;1666;48.898;9.182;2022-10-03T04:16:12;32.78;;;16.13;;
3307;SDS011;1666;48.898;9.182;2022-10-03T04:19:09;29.58;;;16.65;;
3307;SDS011;1666;48.898;9.182;2022-10-03T04:21:50;29.85;;;16.23;;
3307;SDS011;1666;48.898;9.182;2022-10-03T04:27:31;29.13;;;16.75;;
3307;SDS011;1666;48.898;9.182;2022-10-03T04:32:57;30.75;;;17.10;;
3307;SDS011;1666;48.898;9.182;2022-10-03T04:38:48;29.08;;;16.92;;
3307;SDS011;1666;48.898;9.182;2022-10-03T04:41:31;28.27;;;16.70;;
3307;SDS011;1666;48.898;9.182;2022-10-03T04:44:10;30.70;;;17.52;;
3307;SDS011;1666;48.898;9.182;2022-10-03T04:46:56;28.67;;;17.15;;
3307;SDS011;1666;48.898;9.182;2022-10-03T04:49:34;30.35;;;16.80;;
3307;SDS011;1666;48.898;9.182;2022-10-03T04:52:13;30.55;;;16.48;;
3307;SDS011;1666;48.898;9.182;2022-10-03T04:54:49;29.15;;;17.25;;
3307;SDS011;1666;48.898;9.182;2022-10-03T04:57:30;33.70;;;17.13;;
3307;SDS011;1666;48.898;9.182;2022-10-03T05:00:14;27.30;;;16.58;;
3307;SDS011;1666;48.898;9.182;2022-10-03T05:02:54;29.85;;;17.60;;
3307;SDS011;1666;48.898;9.182;2022-10-03T05:05:42;31.70;;;16.33;;
3307;SDS011;1666;48.898;9.182;2022-10-03T05:08:31;26.75;;;17.23;;
3307;SDS011;1666;48.898;9.182;2022-10-03T05:11:08;38.08;;;18.48;;
3307;SDS011;1666;48.898;9.182;2022-10-03T05:13:52;30.35;;;17.60;;
3307;SDS011;1666;48.898;9.182;2022-10-03T05:16:30;33.03;;;18.52;;
3307;SDS011;1666;48.898;9.182;2022-10-03T05:19:15;32.80;;;18.30;;
3307;SDS011;1666;48.898;9.182;2022-10-03T05:22:23;32.28;;;18.15;;
3307;SDS011;1666;48.898;9.182;2022-10-03T05:25:10;33.40;;;17.30;;
3307;SDS011;1666;48.898;9.182;2022-10-03T05:28:01;35.95;;;19.70;;
3307;SDS011;1666;48.898;9.182;2022-10-03T05:30:41;31.95;;;18.23;;
3307;SDS011;1666;48.898;9.182;2022-10-03T05:33:21;34.17;;;19.25;;
3307;SDS011;1666;48.898;9.182;2022-10-03T05:36:07;26.73;;;17.52;;
3307;SDS011;1666;48.898;9.182;2022-10-03T05:38:56;31.80;;;17.60;;
3307;SDS011;1666;48.898;9.182;2022-10-03T05:41:48;31.25;;;18.17;;
3307;SDS011;1666;48.898;9.182;2022-10-03T05:44:40;33.55;;;18.63;;
3307;SDS011;1666;48.898;9.182;2022-10-03T05:47:15;32.78;;;17.60;;
3307;SDS011;1666;48.898;9.182;2022-10-03T05:50:14;32.90;;;17.75;;
3307;SDS011;1666;48.898;9.182;2022-10-03T05:53:13;32.58;;;17.77;;
3307;SDS011;1666;48.898;9.182;2022-10-03T05:56:15;30.25;;;17.83;;
3307;SDS011;1666;48.898;9.182;2022-10-03T05:59:11;28.92;;;17.15;;
3307;SDS011;1666;48.898;9.182;2022-10-03T06:02:03;26.08;;;16.85;;
3307;SDS011;1666;48.898;9.182;2022-10-03T06:05:04;30.98;;;17.40;;
3307;SDS011;1666;48.898;9.182;2022-10-03T06:11:13;29.02;;;17.98;;
3307;SDS011;1666;48.898;9.182;2022-10-03T06:14:15;30.10;;;17.70;;
3307;SDS011;1666;48.898;9.182;2022-10-03T06:19:57;37.42;;;17.30;;
3307;SDS011;1666;48.898;9.182;2022-10-03T06:22:49;32.75;;;16.23;;
3307;SDS011;1666;48.898;9.182;2022-10-03T06:28:58;27.08;;;16.73;;
3307;SDS011;1666;48.898;9.182;2022-10-03T06:38:21;31.73;;;17.15;;
3307;SDS011;1666;48.898;9.182;2022-10-03T06:41:24;28.58;;;16.45;;
3307;SDS011;1666;48.898;9.182;2022-10-03T06:44:38;32.45;;;17.65;;
3307;SDS011;1666;48.898;9.182;2022-10-03T06:47:29;30.88;;;18.02;;
3307;SDS011;1666;48.898;9.182;2022-10-03T06:50:16;32.60;;;18.55;;
3307;SDS011;1666;48.898;9.182;2022-10-03T06:53:15;31.70;;;18.38;;
3307;SDS011;1666;48.898;9.182;2022-10-03T06:56:18;32.83;;;18.27;;
3307;SDS011;1666;48.898;9.182;2022-10-03T06:59:20;27.77;;;17.10;;
3307;SDS011;1666;48.898;9.182;2022-10-03T07:02:24;36.83;;;18.20;;
3307;SDS011;1666;48.898;9.182;2022-10-03T07:05:24;25.92;;;17.30;;
3307;SDS011;1666;48.898;9.182;2022-10-03T07:11:52;27.67;;;17.88;;
3307;SDS011;1666;48.898;9.182;2022-10-03T07:14:57;32.17;;;18.20;;
3307;SDS011;1666;48.898;9.182;2022-10-03T07:17:46;33.15;;;18.55;;
3307;SDS011;1666;48.898;9.182;2022-10-03T07:23:48;25.27;;;16.02;;
3307;SDS011;1666;48.898;9.182;2022-10-03T07:26:47;22.08;;;14.65;;
3307;SDS011;1666;48.898;9.182;2022-10-03T07:32:25;20.65;;;12.60;;
3307;SDS011;1666;48.898;9.182;2022-10-03T07:41:46;23.20;;;12.52;;
3307;SDS011;1666;48.898;9.182;2022-10-03T07:50:47;19.05;;;9.88;;
3307;SDS011;1666;48.898;9.182;2022-10-03T07:53:23;18.58;;;9.70;;
3307;SDS011;1666;48.898;9.182;2022-10-03T07:56:15;15.95;;;9.20;;
3307;SDS011;1666;48.898;9.182;2022-10-03T07:59:12;16.80;;;9.20;;
3307;SDS011;1666;48.898;9.182;2022-10-03T08:02:03;19.65;;;8.98;;
3307;SDS011;1666;48.898;9.182;2022-10-03T08:04:59;17.07;;;9.20;;
3307;SDS011;1666;48.898;9.182;2022-10-03T08:07:55;19.75;;;9.30;;
3307;SDS011;1666;48.898;9.182;2022-10-03T08:13:34;17.85;;;9.35;;
3307;SDS011;1666;48.898;9.182;2022-10-03T08:16:26;18.42;;;9.75;;
3307;SDS011;1666;48.898;9.182;2022-10-03T08:19:17;16.55;;;9.32;;
3307;SDS011;1666;48.898;9.182;2022-10-03T08:22:04;23.92;;;9.05;;
3307;SDS011;1666;48.898;9.182;2022-10-03T08:27:44;19.05;;;9.05;;
3307;SDS011;1666;48.898;9.182;2022-10-03T08:30:30;18.42;;;9.10;;
3307;SDS011;1666;48.898;9.182;2022-10-03T08:33:20;17.70;;;8.10;;
3307;SDS011;1666;48.898;9.182;2022-10-03T08:39:16;14.57;;;8.85;;
3307;SDS011;1666;48.898;9.182;2022-10-03T08:42:14;14.27;;;7.60;;
3307;SDS011;1666;48.898;9.182;2022-10-03T08:48:25;19.20;;;7.82;;
3307;SDS011;1666;48.898;9.182;2022-10-03T08:54:26;14.48;;;6.70;;
3307;SDS011;1666;48.898;9.182;2022-10-03T09:00:25;14.07;;;7.97;;
3307;SDS011;1666;48.898;9.182;2022-10-03T09:03:12;15.05;;;6.65;;
3307;SDS011;1666;48.898;9.182;2022-10-03T09:12:36;14.13;;;6.70;;
3307;SDS011;1666;48.898;9.182;2022-10-03T09:15:41;12.63;;;5.90;;
3307;SDS011;1666;48.898;9.182;2022-10-03T09:18:57;11.32;;;5.00;;
3307;SDS011;1666;48.898;9.182;2022-10-03T09:21:42;13.05;;;5.57;;
3307;SDS011;1666;48.898;9.182;2022-10-03T09:24:41;12.20;;;5.95;;
3307;SDS011;1666;48.898;9.182;2022-10-03T09:27:40;11.35;;;5.55;;
3307;SDS011;1666;48.898;9.182;2022-10-03T09:30:22;15.15;;;6.85;;
3307;SDS011;1666;48.898;9.182;2022-10-03T09:35:50;12.75;;;5.90;;
3307;SDS011;1666;48.898;9.182;2022-10-03T09:38:42;12.65;;;5.80;;
3307;SDS011;1666;48.898;9.182;2022-10-03T09:41:40;11.45;;;5.68;;
3307;SDS011;1666;48.898;9.182;2022-10-03T09:44:38;12.48;;;6.65;;
3307;SDS011;1666;48.898;9.182;2022-10-03T09:47:29;14.52;;;8.07;;
3307;SDS011;1666;48.898;9.182;2022-10-03T09:53:43;11.35;;;7.50;;
3307;SDS011;1666;48.898;9.182;2022-10-03T09:56:54;13.27;;;8.05;;
3307;SDS011;1666;48.898;9.182;2022-10-03T09:59:47;14.90;;;8.15;;
3307;SDS011;1666;48.898;9.182;2022-10-03T10:02:39;16.60;;;8.48;;
3307;SDS011;1666;48.898;9.182;2022-10-03T10:12:04;16.58;;;7.50;;
3307;SDS011;1666;48.898;9.182;2022-10-03T10:14:57;14.00;;;7.38;;
3307;SDS011;1666;48.898;9.182;2022-10-03T10:17:50;12.80;;;7.10;;
3307;SDS011;1666;48.898;9.182;2022-10-03T10:21:02;11.20;;;6.53;;
3307;SDS011;1666;48.898;9.182;2022-10-03T10:24:00;15.15;;;6.53;;
3307;SDS011;1666;48.898;9.182;2022-10-03T10:27:02;20.63;;;15.93;;
3307;SDS011;1666;48.898;9.182;2022-10-03T10:30:07;15.82;;;10.60;;
3307;SDS011;1666;48.898;9.182;2022-10-03T10:36:01;10.88;;;6.25;;
3307;SDS011;1666;48.898;9.182;2022-10-03T10:45:17;26.20;;;5.65;;
3307;SDS011;1666;48.898;9.182;2022-10-03T10:51:36;12.82;;;5.97;;
3307;SDS011;1666;48.898;9.182;2022-10-03T11:00:43;14.73;;;6.20;;
3307;SDS011;1666;48.898;9.182;2022-10-03T11:09:55;9.95;;;4.03;;
3307;SDS011;1666;48.898;9.182;2022-10-03T11:19:27;16.73;;;4.93;;
3307;SDS011;1666;48.898;9.182;2022-10-03T11:22:40;8.50;;;4.40;;
3307;SDS011;1666;48.898;9.182;2022-10-03T11:25:41;12.13;;;4.30;;
3307;SDS011;1666;48.898;9.182;2022-10-03T11:31:42;12.07;;;4.53;;
3307;SDS011;1666;48.898;9.182;2022-10-03T11:34:44;12.13;;;3.83;;
3307;SDS011;1666;48.898;9.182;2022-10-03T11:37:47;10.07;;;3.80;;
3307;SDS011;1666;48.898;9.182;2022-10-03T11:40:23;9.93;;;4.10;;
3307;SDS011;1666;48.898;9.182;2022-10-03T11:43:28;12.45;;;3.67;;
3307;SDS011;1666;48.898;9.182;2022-10-03T11:46:19;7.28;;;3.08;;
3307;SDS011;1666;48.898;9.182;2022-10-03T11:51:35;10.48;;;3.30;;
3307;SDS011;1666;48.898;9.182;2022-10-03T11:54:19;9.40;;;3.47;;
3307;SDS011;1666;48.898;9.182;2022-10-03T11:56:58;9.57;;;3.58;;
3307;SDS011;1666;48.898;9.182;2022-10-03T12:02:42;10.55;;;3.33;;
3307;SDS011;1666;48.898;9.182;2022-10-03T12:05:39;11.45;;;3.83;;
3307;SDS011;1666;48.898;9.182;2022-10-03T12:08:20;10.25;;;3.67;;
3307;SDS011;1666;48.898;9.182;2022-10-03T12:11:09;7.45;;;3.47;;
3307;SDS011;1666;48.898;9.182;2022-10-03T12:13:57;11.07;;;3.70;;
3307;SDS011;1666;48.898;9.182;2022-10-03T12:16:41;8.80;;;3.13;;
3307;SDS011;1666;48.898;9.182;2022-10-03T12:19:32;8.35;;;3.50;;
3307;SDS011;1666;48.898;9.182;2022-10-03T12:22:21;7.03;;;3.63;;
3307;SDS011;1666;48.898;9.182;2022-10-03T12:25:01;6.57;;;3.17;;
3307;SDS011;1666;48.898;9.182;2022-10-03T12:27:47;9.48;;;3.40;;
3307;SDS011;1666;48.898;9.182;2022-10-03T12:30:24;5.13;;;2.85;;
3307;SDS011;1666;48.898;9.182;2022-10-03T12:33:02;5.55;;;2.90;;
3307;SDS011;1666;48.898;9.182;2022-10-03T12:35:42;8.25;;;3.38;;
3307;SDS011;1666;48.898;9.182;2022-10-03T12:38:28;9.43;;;3.08;;
3307;SDS011;1666;48.898;9.182;2022-10-03T12:41:10;6.50;;;2.97;;
3307;SDS011;1666;48.898;9.182;2022-10-03T12:43:52;6.60;;;2.90;;
3307;SDS011;1666;48.898;9.182;2022-10-03T12:46:35;4.97;;;2.72;;
3307;SDS011;1666;48.898;9.182;2022-10-03T12:49:14;10.15;;;2.97;;
3307;SDS011;1666;48.898;9.182;2022-10-03T12:51:51;5.88;;;3.00;;
3307;SDS011;1666;48.898;9.182;2022-10-03T12:54:33;8.23;;;3.55;;
3307;SDS011;1666;48.898;9.182;2022-10-03T12:57:29;10.98;;;3.65;;
3307;SDS011;1666;48.898;9.182;2022-10-03T13:00:21;9.20;;;3.17;;
3307;SDS011;1666;48.898;9.182;2022-10-03T13:03:07;6.63;;;2.67;;
3307;SDS011;1666;48.898;9.182;2022-10-03T13:05:58;9.10;;;2.80;;
3307;SDS011;1666;48.898;9.182;2022-10-03T13:09:20;10.88;;;3.83;;
3307;SDS011;1666;48.898;9.182;2022-10-03T13:11:57;5.35;;;2.90;;
3307;SDS011;1666;48.898;9.182;2022-10-03T13:17:33;4.50;;;2.50;;
3307;SDS011;1666;48.898;9.182;2022-10-03T13:20:09;8.68;;;2.80;;
3307;SDS011;1666;48.898;9.182;2022-10-03T13:22:45;7.55;;;2.80;;
3307;SDS011;1666;48.898;9.182;2022-10-03T13:25:30;6.85;;;2.50;;
3307;SDS011;1666;48.898;9.182;2022-10-03T13:28:11;5.70;;;2.88;;
3307;SDS011;1666;48.898;9.182;2022-10-03T13:30:44;5.72;;;2.35;;
3307;SDS011;1666;48.898;9.182;2022-10-03T13:33:19;3.25;;;2.10;;
3307;SDS011;1666;48.898;9.182;2022-10-03T13:35:53;7.40;;;2.38;;
3307;SDS011;1666;48.898;9.182;2022-10-03T13:41:33;5.72;;;2.20;;
3307;SDS011;1666;48.898;9.182;2022-10-03T13:44:18;6.35;;;2.33;;
3307;SDS011;1666;48.898;9.182;2022-10-03T13:46:55;4.53;;;2.10;;
3307;SDS011;1666;48.898;9.182;2022-10-03T13:49:31;5.72;;;2.30;;
3307;SDS011;1666;48.898;9.182;2022-10-03T13:52:07;5.05;;;2.20;;
3307;SDS011;1666;48.898;9.182;2022-10-03T13:55:03;6.07;;;2.50;;
3307;SDS011;1666;48.898;9.182;2022-10-03T14:04:16;5.90;;;2.65;;
3307;SDS011;1666;48.898;9.182;2022-10-03T14:07:07;7.82;;;2.80;;
3307;SDS011;1666;48.898;9.182;2022-10-03T14:09:49;5.53;;;2.40;;
3307;SDS011;1666;48.898;9.182;2022-10-03T14:12:41;4.70;;;2.27;;
3307;SDS011;1666;48.898;9.182;2022-10-03T14:15:36;7.72;;;2.90;;
3307;SDS011;1666;48.898;9.182;2022-10-03T14:18:21;5.43;;;2.50;;
3307;SDS011;1666;48.898;9.182;2022-10-03T14:23:55;4.90;;;2.33;;
3307;SDS011;1666;48.898;9.182;2022-10-03T14:26:32;6.18;;;2.22;;
3307;SDS011;1666;48.898;9.182;2022-10-03T14:29:07;7.47;;;2.80;;
3307;SDS011;1666;48.898;9.182;2022-10-03T14:31:47;5.18;;;2.70;;
3307;SDS011;1666;48.898;9.182;2022-10-03T14:34:31;4.68;;;2.10;;
3307;SDS011;1666;48.898;9.182;2022-10-03T14:37:14;4.20;;;2.67;;
3307;SDS011;1666;48.898;9.182;2022-10-03T14:39:53;3.95;;;2.28;;
3307;SDS011;1666;48.898;9.182;2022-10-03T14:42:37;5.85;;;2.55;;
3307;SDS011;1666;48.898;9.182;2022-10-03T14:45:17;6.32;;;3.20;;
3307;SDS011;1666;48.898;9.182;2022-10-03T14:47:52;4.72;;;3.03;;
3307;SDS011;1666;48.898;9.182;2022-10-03T14:50:28;7.57;;;2.47;;
3307;SDS011;1666;48.898;9.182;2022-10-03T14:53:00;6.85;;;2.67;;
3307;SDS011;1666;48.898;9.182;2022-10-03T14:55:37;6.10;;;2.35;;
3307;SDS011;1666;48.898;9.182;2022-10-03T14:58:15;4.95;;;2.75;;
3307;SDS011;1666;48.898;9.182;2022-10-03T15:00:48;4.97;;;2.13;;
3307;SDS011;1666;48.898;9.182;2022-10-03T15:03:27;5.85;;;3.20;;
3307;SDS011;1666;48.898;9.182;2022-10-03T15:06:16;7.00;;;2.63;;
3307;SDS011;1666;48.898;9.182;2022-10-03T15:09:00;5.10;;;2.50;;
3307;SDS011;1666;48.898;9.182;2022-10-03T15:11:33;5.15;;;2.42;;
3307;SDS011;1666;48.898;9.182;2022-10-03T15:14:05;7.47;;;2.33;;
3307;SDS011;1666;48.898;9.182;2022-10-03T15:16:38;5.03;;;2.58;;
3307;SDS011;1666;48.898;9.182;2022-10-03T15:19:16;5.18;;;2.85;;
3307;SDS011;1666;48.898;9.182;2022-10-03T15:21:51;4.80;;;2.40;;
3307;SDS011;1666;48.898;9.182;2022-10-03T15:24:22;5.10;;;2.60;;
3307;SDS011;1666;48.898;9.182;2022-10-03T15:26:57;7.70;;;2.80;;
3307;SDS011;1666;48.898;9.182;2022-10-03T15:29:31;7.43;;;2.78;;
3307;SDS011;1666;48.898;9.182;2022-10-03T15:32:02;7.47;;;2.95;;
3307;SDS011;1666;48.898;9.182;2022-10-03T15:34:37;4.30;;;2.58;;
3307;SDS011;1666;48.898;9.182;2022-10-03T15:37:17;5.07;;;2.40;;
3307;SDS011;1666;48.898;9.182;2022-10-03T15:39:50;4.30;;;2.63;;
3307;SDS011;1666;48.898;9.182;2022-10-03T15:42:23;6.93;;;2.65;;
3307;SDS011;1666;48.898;9.182;2022-10-03T15:44:59;4.80;;;2.58;;
3307;SDS011;1666;48.898;9.182;2022-10-03T15:47:32;5.33;;;2.47;;
3307;SDS011;1666;48.898;9.182;2022-10-03T15:50:06;5.13;;;2.35;;
3307;SDS011;1666;48.898;9.182;2022-10-03T15:52:48;3.55;;;2.10;;
3307;SDS011;1666;48.898;9.182;2022-10-03T15:55:33;10.40;;;2.78;;
3307;SDS011;1666;48.898;9.182;2022-10-03T15:58:10;5.47;;;2.65;;
3307;SDS011;1666;48.898;9.182;2022-10-03T16:00:46;4.38;;;2.45;;
3307;SDS011;1666;48.898;9.182;2022-10-03T16:03:22;6.20;;;2.50;;
3307;SDS011;1666;48.898;9.182;2022-10-03T16:05:59;7.00;;;2.50;;
3307;SDS011;1666;48.898;9.182;2022-10-03T16:08:38;6.05;;;2.60;;
3307;SDS011;1666;48.898;9.182;2022-10-03T16:11:19;5.72;;;2.58;;
3307;SDS011;1666;48.898;9.182;2022-10-03T16:13:54;3.30;;;2.20;;
3307;SDS011;1666;48.898;9.182;2022-10-03T16:16:39;4.30;;;2.67;;
3307;SDS011;1666;48.898;9.182;2022-10-03T16:19:19;4.63;;;2.70;;
3307;SDS011;1666;48.898;9.182;2022-10-03T16:22:00;5.28;;;2.58;;
3307;SDS011;1666;48.898;9.182;2022-10-03T16:24:42;6.70;;;2.60;;
3307;SDS011;1666;48.898;9.182;2022-10-03T16:27:18;7.05;;;2.88;;
3307;SDS011;1666;48.898;9.182;2022-10-03T16:29:52;6.03;;;2.65;;
3307;SDS011;1666;48.898;9.182;2022-10-03T16:32:26;8.77;;;2.88;;
3307;SDS011;1666;48.898;9.182;2022-10-03T16:34:59;8.80;;;4.75;;
3307;SDS011;1666;48.898;9.182;2022-10-03T16:37:30;7.82;;;4.30;;
3307;SDS011;1666;48.898;9.182;2022-10-03T16:40:12;12.75;;;5.57;;
3307;SDS011;1666;48.898;9.182;2022-10-03T16:42:50;10.10;;;5.07;;
3307;SDS011;1666;48.898;9.182;2022-10-03T16:45:24;11.93;;;5.77;;
3307;SDS011;1666;48.898;9.182;2022-10-03T16:47:58;16.27;;;8.60;;
3307;SDS011;1666;48.898;9.182;2022-10-03T16:50:45;13.05;;;7.20;;
3307;SDS011;1666;48.898;9.182;2022-10-03T16:55:52;5.65;;;2.70;;
3307;SDS011;1666;48.898;9.182;2022-10-03T16:58:27;7.97;;;3.17;;
3307;SDS011;1666;48.898;9.182;2022-10-03T17:00:59;7.70;;;3.17;;
3307;SDS011;1666;48.898;9.182;2022-10-03T17:03:53;7.05;;;3.00;;
3307;SDS011;1666;48.898;9.182;2022-10-03T17:06:34;7.43;;;3.30;;
3307;SDS011;1666;48.898;9.182;2022-10-03T17:09:07;9.00;;;3.05;;
3307;SDS011;1666;48.898;9.182;2022-10-03T17:11:56;5.88;;;3.13;;
3307;SDS011;1666;48.898;9.182;2022-10-03T17:14:29;4.75;;;3.38;;
3307;SDS011;1666;48.898;9.182;2022-10-03T17:17:05;7.80;;;3.50;;
3307;SDS011;1666;48.898;9.182;2022-10-03T17:19:45;8.57;;;3.28;;
3307;SDS011;1666;48.898;9.182;2022-10-03T17:22:19;10.05;;;4.13;;
3307;SDS011;1666;48.898;9.182;2022-10-03T17:24:53;13.02;;;7.57;;
3307;SDS011;1666;48.898;9.182;2022-10-03T17:27:34;7.75;;;4.78;;
3307;SDS011;1666;48.898;9.182;2022-10-03T17:30:15;12.98;;;5.55;;
3307;SDS011;1666;48.898;9.182;2022-10-03T17:32:51;15.05;;;8.48;;
3307;SDS011;1666;48.898;9.182;2022-10-03T17:35:26;9.30;;;5.95;;
3307;SDS011;1666;48.898;9.182;2022-10-03T17:38:12;19.17;;;8.70;;
3307;SDS011;1666;48.898;9.182;2022-10-03T17:41:16;12.90;;;7.10;;
3307;SDS011;1666;48.898;9.182;2022-10-03T17:46:38;11.25;;;6.25;;
3307;SDS011;1666;48.898;9.182;2022-10-03T17:49:17;14.20;;;6.45;;
3307;SDS011;1666;48.898;9.182;2022-10-03T17:51:50;11.15;;;6.35;;
3307;SDS011;1666;48.898;9.182;2022-10-03T17:54:24;9.77;;;5.90;;
3307;SDS011;1666;48.898;9.182;2022-10-03T17:56:58;13.23;;;6.18;;
3307;SDS011;1666;48.898;9.182;2022-10-03T17:59:36;12.25;;;6.03;;
3307;SDS011;1666;48.898;9.182;2022-10-03T18:02:18;15.93;;;7.85;;
3307;SDS011;1666;48.898;9.182;2022-10-03T18:04:53;11.45;;;7.30;;
3307;SDS011;1666;48.898;9.182;2022-10-03T18:07:28;16.15;;;7.50;;
3307;SDS011;1666;48.898;9.182;2022-10-03T18:09:58;17.05;;;6.95;;
3307;SDS011;1666;48.898;9.182;2022-10-03T18:12:30;17.38;;;8.50;;
3307;SDS011;1666;48.898;9.182;2022-10-03T18:21:15;13.07;;;9.57;;
3307;SDS011;1666;48.898;9.182;2022-10-03T18:26:44;14.82;;;9.02;;
3307;SDS011;1666;48.898;9.182;2022-10-03T18:29:20;15.75;;;8.95;;
3307;SDS011;1666;48.898;9.182;2022-10-03T18:31:57;16.35;;;9.18;;
3307;SDS011;1666;48.898;9.182;2022-10-03T18:34:36;13.88;;;7.95;;
3307;SDS011;1666;48.898;9.182;2022-10-03T18:37:47;15.25;;;8.63;;
3307;SDS011;1666;48.898;9.182;2022-10-03T18:40:25;17.17;;;9.02;;
3307;SDS011;1666;48.898;9.182;2022-10-03T18:42:56;13.30;;;8.38;;
3307;SDS011;1666;48.898;9.182;2022-10-03T18:45:28;19.15;;;8.90;;
3307;SDS011;1666;48.898;9.182;2022-10-03T18:48:03;20.70;;;11.45;;
3307;SDS011;1666;48.898;9.182;2022-10-03T18:50:48;21.27;;;13.20;;
3307;SDS011;1666;48.898;9.182;2022-10-03T18:53:28;20.50;;;11.90;;
3307;SDS011;1666;48.898;9.182;2022-10-03T18:56:08;21.05;;;12.25;;
3307;SDS011;1666;48.898;9.182;2022-10-03T18:58:40;18.23;;;12.18;;
3307;SDS011;1666;48.898;9.182;2022-10-03T19:03:47;21.90;;;11.75;;
3307;SDS011;1666;48.898;9.182;2022-10-03T19:06:22;20.95;;;13.05;;
3307;SDS011;1666;48.898;9.182;2022-10-03T19:08:57;19.15;;;11.52;;
3307;SDS011;1666;48.898;9.182;2022-10-03T19:11:36;18.65;;;11.88;;
3307;SDS011;1666;48.898;9.182;2022-10-03T19:14:12;20.92;;;13.00;;
3307;SDS011;1666;48.898;9.182;2022-10-03T19:16:56;20.20;;;12.98;;
3307;SDS011;1666;48.898;9.182;2022-10-03T19:19:47;24.45;;;13.82;;
3307;SDS011;1666;48.898;9.182;2022-10-03T19:22:26;19.48;;;12.10;;
3307;SDS011;1666;48.898;9.182;2022-10-03T19:27:44;16.83;;;11.20;;
3307;SDS011;1666;48.898;9.182;2022-10-03T19:30:18;15.65;;;10.48;;
3307;SDS011;1666;48.898;9.182;2022-10-03T19:32:51;16.20;;;10.43;;
3307;SDS011;1666;48.898;9.182;2022-10-03T19:35:25;18.25;;;11.77;;
3307;SDS011;1666;48.898;9.182;2022-10-03T19:37:58;21.42;;;12.00;;
3307;SDS011;1666;48.898;9.182;2022-10-03T19:40:35;21.23;;;11.25;;
3307;SDS011;1666;48.898;9.182;2022-10-03T19:46:11;19.73;;;11.98;;
3307;SDS011;1666;48.898;9.182;2022-10-03T19:49:01;25.42;;;12.77;;
3307;SDS011;1666;48.898;9.182;2022-10-03T19:51:46;21.98;;;12.55;;
3307;SDS011;1666;48.898;9.182;2022-10-03T19:54:26;22.33;;;11.73;;
3307;SDS011;1666;48.898;9.182;2022-10-03T19:57:00;24.63;;;12.82;;
3307;SDS011;1666;48.898;9.182;2022-10-03T19:59:44;17.00;;;12.20;;
3307;SDS011;1666;48.898;9.182;2022-10-03T20:02:19;19.10;;;12.18;;